createdAt,value
2019-05-19T00:01:00.678Z,1001.76
2019-05-19T00:02:10.408Z,1001.79
2019-05-19T00:03:20.369Z,1001.79
2019-05-19T00:04:29.569Z,1001.77
2019-05-19T00:05:39.533Z,1001.76
2019-05-19T00:06:49.302Z,1001.78
2019-05-19T00:07:59.283Z,1001.78
2019-05-19T00:09:09.014Z,1001.76
2019-05-19T00:10:21.867Z,1001.8
2019-05-19T00:11:31.850Z,1001.83
2019-05-19T00:12:41.312Z,1001.84
2019-05-19T00:13:51.296Z,1001.89
2019-05-19T00:15:01.007Z,1001.89
2019-05-19T00:16:10.957Z,1001.89
2019-05-19T00:17:20.668Z,1001.91
2019-05-19T00:18:30.416Z,1001.92
2019-05-19T00:19:40.142Z,1001.89
2019-05-19T00:20:50.170Z,1001.92
2019-05-19T00:22:00.109Z,1001.89
2019-05-19T00:23:09.820Z,1001.96
2019-05-19T00:24:19.518Z,1001.91
2019-05-19T00:25:29.235Z,1001.95
2019-05-19T00:26:39.293Z,1001.93
2019-05-19T00:27:49.260Z,1001.96
2019-05-19T00:28:58.977Z,1001.92
2019-05-19T00:30:08.942Z,1001.9
2019-05-19T00:31:18.906Z,1001.94
2019-05-19T00:32:28.620Z,1001.91
2019-05-19T00:33:38.342Z,1001.89
2019-05-19T00:34:48.289Z,1001.89
2019-05-19T00:35:57.987Z,1001.87
2019-05-19T00:37:07.196Z,1001.89
2019-05-19T00:38:16.968Z,1001.9
2019-05-19T00:39:26.664Z,1001.89
2019-05-19T00:40:36.709Z,1001.88
2019-05-19T00:41:46.446Z,1001.86
2019-05-19T00:42:56.406Z,1001.9
2019-05-19T00:44:06.159Z,1001.84
2019-05-19T00:45:16.116Z,1001.84
2019-05-19T00:46:25.808Z,1001.84
2019-05-19T00:47:35.774Z,1001.82
2019-05-19T00:48:45.724Z,1001.84
2019-05-19T00:49:55.698Z,1001.82
2019-05-19T00:51:05.692Z,1001.8
2019-05-19T00:52:15.666Z,1001.78
2019-05-19T00:53:25.409Z,1001.78
2019-05-19T00:54:35.383Z,1001.76
2019-05-19T00:55:45.345Z,1001.75
2019-05-19T00:56:55.307Z,1001.74
2019-05-19T00:58:04.772Z,1001.73
2019-05-19T00:59:14.722Z,1001.71
2019-05-19T01:00:24.431Z,1001.69
2019-05-19T01:01:34.396Z,1001.7
2019-05-19T01:02:44.394Z,1001.71
2019-05-19T01:03:54.356Z,1001.72
2019-05-19T01:05:04.070Z,1001.71
2019-05-19T01:06:14.023Z,1001.69
2019-05-19T01:07:23.731Z,1001.74
2019-05-19T01:08:33.692Z,1001.74
2019-05-19T01:09:43.646Z,1001.7
2019-05-19T01:10:53.355Z,1001.72
2019-05-19T01:12:03.337Z,1001.7
2019-05-19T01:13:13.405Z,1001.69
2019-05-19T01:14:23.112Z,1001.67
2019-05-19T01:15:32.824Z,1001.7
2019-05-19T01:16:42.270Z,1001.67
2019-05-19T01:17:52.262Z,1001.67
2019-05-19T01:19:02.225Z,1001.64
2019-05-19T01:20:12.212Z,1001.65
2019-05-19T01:21:22.158Z,1001.68
2019-05-19T01:22:31.880Z,1001.69
2019-05-19T01:23:41.850Z,1001.67
2019-05-19T01:24:51.339Z,1001.65
2019-05-19T01:26:01.039Z,1001.68
2019-05-19T01:27:11.047Z,1001.65
2019-05-19T01:28:21.001Z,1001.65
2019-05-19T01:29:30.960Z,1001.65
2019-05-19T01:30:40.917Z,1001.63
2019-05-19T01:31:50.612Z,1001.63
2019-05-19T01:33:00.370Z,1001.59
2019-05-19T01:34:10.066Z,1001.6
2019-05-19T01:35:19.765Z,1001.63
2019-05-19T01:36:29.206Z,1001.56
2019-05-19T01:37:39.212Z,1001.57
2019-05-19T01:38:48.698Z,1001.6
2019-05-19T01:39:58.657Z,1001.6
2019-05-19T01:41:08.654Z,1001.62
2019-05-19T01:42:18.353Z,1001.62
2019-05-19T01:43:28.068Z,1001.59
2019-05-19T01:44:38.019Z,1001.61
2019-05-19T01:45:47.777Z,1001.57
2019-05-19T01:46:57.732Z,1001.58
2019-05-19T01:48:07.175Z,1001.57
2019-05-19T01:49:17.133Z,1001.52
2019-05-19T01:50:26.849Z,1001.55
2019-05-19T01:51:36.546Z,1001.58
2019-05-19T01:52:46.282Z,1001.61
2019-05-19T01:53:55.995Z,1001.61
2019-05-19T01:55:05.965Z,1001.64
2019-05-19T01:56:15.928Z,1001.63
2019-05-19T01:57:25.629Z,1001.62
2019-05-19T01:58:35.595Z,1001.6
2019-05-19T01:59:45.292Z,1001.63
2019-05-19T02:00:55.277Z,1001.61
2019-05-19T02:02:05.308Z,1001.62
2019-05-19T02:03:15.303Z,1001.58
2019-05-19T02:04:25.276Z,1001.64
2019-05-19T02:05:35.243Z,1001.54
2019-05-19T02:06:44.966Z,1001.56
2019-05-19T02:07:54.928Z,1001.53
2019-05-19T02:09:04.641Z,1001.52
2019-05-19T02:10:14.338Z,1001.54
2019-05-19T02:11:24.335Z,1001.51
2019-05-19T02:12:34.415Z,1001.51
2019-05-19T02:13:44.391Z,1001.49
2019-05-19T02:14:54.373Z,1001.52
2019-05-19T02:16:04.326Z,1001.51
2019-05-19T02:17:14.055Z,1001.51
2019-05-19T02:18:23.760Z,1001.48
2019-05-19T02:19:33.707Z,1001.46
2019-05-19T02:20:43.675Z,1001.45
2019-05-19T02:21:53.643Z,1001.43
2019-05-19T02:23:03.599Z,1001.48
2019-05-19T02:24:13.111Z,1001.46
2019-05-19T02:25:23.111Z,1001.46
2019-05-19T02:26:33.076Z,1001.45
2019-05-19T02:27:43.055Z,1001.45
2019-05-19T02:28:53.006Z,1001.43
2019-05-19T02:30:03.118Z,1001.42
2019-05-19T02:31:13.161Z,1001.43
2019-05-19T02:32:22.630Z,1001.47
2019-05-19T02:33:35.619Z,1001.5
2019-05-19T02:34:45.719Z,1001.45
2019-05-19T02:35:55.472Z,1001.43
2019-05-19T02:37:05.193Z,1001.46
2019-05-19T02:38:14.906Z,1001.46
2019-05-19T02:39:24.893Z,1001.45
2019-05-19T02:40:34.598Z,1001.43
2019-05-19T02:41:44.309Z,1001.39
2019-05-19T02:42:54.323Z,1001.4
2019-05-19T02:44:04.113Z,1001.39
2019-05-19T02:45:13.846Z,1001.36
2019-05-19T02:46:23.570Z,1001.41
2019-05-19T02:47:33.540Z,1001.4
2019-05-19T02:48:43.544Z,1001.39
2019-05-19T02:49:53.492Z,1001.44
2019-05-19T02:51:03.255Z,1001.46
2019-05-19T02:52:13.240Z,1001.47
2019-05-19T02:53:23.213Z,1001.54
2019-05-19T02:54:32.692Z,1001.54
2019-05-19T02:55:42.404Z,1001.57
2019-05-19T02:56:51.866Z,1001.55
2019-05-19T02:58:01.876Z,1001.53
2019-05-19T02:59:11.879Z,1001.54
2019-05-19T03:00:21.845Z,1001.55
2019-05-19T03:01:31.852Z,1001.54
2019-05-19T03:02:41.859Z,1001.52
2019-05-19T03:03:51.823Z,1001.48
2019-05-19T03:05:01.811Z,1001.54
2019-05-19T03:06:11.797Z,1001.53
2019-05-19T03:07:21.537Z,1001.53
2019-05-19T03:08:31.512Z,1001.51
2019-05-19T03:09:41.481Z,1001.51
2019-05-19T03:10:51.460Z,1001.52
2019-05-19T03:12:00.965Z,1001.52
2019-05-19T03:13:10.982Z,1001.51
2019-05-19T03:14:20.939Z,1001.53
2019-05-19T03:15:30.514Z,1001.57
2019-05-19T03:16:40.234Z,1001.53
2019-05-19T03:17:50.188Z,1001.53
2019-05-19T03:19:00.149Z,1001.51
2019-05-19T03:20:09.615Z,1001.5
2019-05-19T03:21:19.349Z,1001.52
2019-05-19T03:22:29.343Z,1001.51
2019-05-19T03:23:39.353Z,1001.56
2019-05-19T03:24:49.115Z,1001.6
2019-05-19T03:25:58.836Z,1001.57
2019-05-19T03:27:08.330Z,1001.58
2019-05-19T03:28:18.298Z,1001.59
2019-05-19T03:29:28.268Z,1001.57
2019-05-19T03:30:37.995Z,1001.58
2019-05-19T03:31:48.018Z,1001.58
2019-05-19T03:32:57.814Z,1001.55
2019-05-19T03:34:07.333Z,1001.52
2019-05-19T03:35:17.333Z,1001.58
2019-05-19T03:36:27.287Z,1001.55
2019-05-19T03:37:37.024Z,1001.58
2019-05-19T03:38:46.744Z,1001.6
2019-05-19T03:39:56.550Z,1001.61
2019-05-19T03:41:06.519Z,1001.63
2019-05-19T03:42:16.524Z,1001.59
2019-05-19T03:43:26.491Z,1001.63
2019-05-19T03:44:36.195Z,1001.6
2019-05-19T03:45:45.651Z,1001.58
2019-05-19T03:46:55.611Z,1001.64
2019-05-19T03:48:05.571Z,1001.64
2019-05-19T03:49:15.341Z,1001.65
2019-05-19T03:50:25.318Z,1001.66
2019-05-19T03:51:34.898Z,1001.66
2019-05-19T03:52:44.638Z,1001.72
2019-05-19T03:53:54.601Z,1001.66
2019-05-19T03:55:04.585Z,1001.66
2019-05-19T03:56:14.576Z,1001.7
2019-05-19T03:57:24.624Z,1001.66
2019-05-19T03:58:34.343Z,1001.67
2019-05-19T03:59:44.320Z,1001.71
2019-05-19T04:00:54.301Z,1001.65
2019-05-19T04:02:04.283Z,1001.64
2019-05-19T04:03:14.334Z,1001.66
2019-05-19T04:04:24.138Z,1001.7
2019-05-19T04:05:33.955Z,1001.68
2019-05-19T04:06:43.453Z,1001.69
2019-05-19T04:07:53.182Z,1001.71
2019-05-19T04:09:03.160Z,1001.73
2019-05-19T04:10:13.116Z,1001.71
2019-05-19T04:11:22.832Z,1001.72
2019-05-19T04:12:32.804Z,1001.68
2019-05-19T04:13:42.526Z,1001.71
2019-05-19T04:14:52.513Z,1001.68
2019-05-19T04:16:02.526Z,1001.7
2019-05-19T04:17:12.507Z,1001.76
2019-05-19T04:18:22.243Z,1001.73
2019-05-19T04:19:32.246Z,1001.71
2019-05-19T04:20:41.984Z,1001.7
2019-05-19T04:21:51.948Z,1001.71
2019-05-19T04:23:01.906Z,1001.69
2019-05-19T04:24:11.619Z,1001.71
2019-05-19T04:25:21.615Z,1001.71
2019-05-19T04:26:31.329Z,1001.73
2019-05-19T04:27:41.065Z,1001.7
2019-05-19T04:28:51.052Z,1001.67
2019-05-19T04:30:01.057Z,1001.67
2019-05-19T04:31:11.194Z,1001.71
2019-05-19T04:32:21.198Z,1001.67
2019-05-19T04:33:31.165Z,1001.66
2019-05-19T04:34:41.122Z,1001.66
2019-05-19T04:35:50.835Z,1001.68
2019-05-19T04:37:04.983Z,1001.73
2019-05-19T04:38:14.938Z,1001.71
2019-05-19T04:39:24.673Z,1001.76
2019-05-19T04:40:34.642Z,1001.77
2019-05-19T04:41:44.619Z,1001.78
2019-05-19T04:42:54.614Z,1001.79
2019-05-19T04:44:04.613Z,1001.78
2019-05-19T04:45:14.318Z,1001.77
2019-05-19T04:46:24.289Z,1001.73
2019-05-19T04:47:34.264Z,1001.71
2019-05-19T04:48:44.012Z,1001.68
2019-05-19T04:49:53.485Z,1001.69
2019-05-19T04:51:03.220Z,1001.62
2019-05-19T04:52:13.075Z,1001.63
2019-05-19T04:53:22.797Z,1001.63
2019-05-19T04:54:32.778Z,1001.62
2019-05-19T04:55:42.757Z,1001.65
2019-05-19T04:56:52.726Z,1001.62
2019-05-19T04:58:02.675Z,1001.64
2019-05-19T04:59:12.388Z,1001.62
2019-05-19T05:00:22.343Z,1001.6
2019-05-19T05:01:32.094Z,1001.58
2019-05-19T05:02:41.797Z,1001.62
2019-05-19T05:03:51.544Z,1001.61
2019-05-19T05:05:01.460Z,1001.6
2019-05-19T05:06:11.655Z,1001.64
2019-05-19T05:07:21.649Z,1001.69
2019-05-19T05:08:31.378Z,1001.72
2019-05-19T05:09:41.375Z,1001.72
2019-05-19T05:10:51.073Z,1001.69
2019-05-19T05:12:01.038Z,1001.69
2019-05-19T05:13:10.766Z,1001.69
2019-05-19T05:14:20.767Z,1001.66
2019-05-19T05:15:30.772Z,1001.65
2019-05-19T05:16:40.502Z,1001.66
2019-05-19T05:17:50.588Z,1001.65
2019-05-19T05:19:00.310Z,1001.67
2019-05-19T05:20:10.270Z,1001.68
2019-05-19T05:21:19.982Z,1001.68
2019-05-19T05:22:29.930Z,1001.72
2019-05-19T05:23:39.621Z,1001.71
2019-05-19T05:24:49.553Z,1001.72
2019-05-19T05:25:58.783Z,1001.74
2019-05-19T05:27:08.238Z,1001.75
2019-05-19T05:28:17.969Z,1001.76
2019-05-19T05:29:27.920Z,1001.75
2019-05-19T05:30:37.368Z,1001.79
2019-05-19T05:31:47.058Z,1001.78
2019-05-19T05:32:56.759Z,1001.78
2019-05-19T05:34:06.456Z,1001.76
2019-05-19T05:35:15.930Z,1001.74
2019-05-19T05:36:27.721Z,1001.73
2019-05-19T05:37:37.621Z,1001.73
2019-05-19T05:38:47.352Z,1001.75
2019-05-19T05:39:57.057Z,1001.73
2019-05-19T05:41:06.820Z,1001.74
2019-05-19T05:42:16.519Z,1001.7
2019-05-19T05:43:26.491Z,1001.7
2019-05-19T05:44:36.461Z,1001.68
2019-05-19T05:45:46.433Z,1001.65
2019-05-19T05:46:56.377Z,1001.7
2019-05-19T05:48:06.331Z,1001.65
2019-05-19T05:49:16.329Z,1001.69
2019-05-19T05:50:26.068Z,1001.66
2019-05-19T05:51:35.785Z,1001.72
2019-05-19T05:52:45.494Z,1001.71
2019-05-19T05:53:55.206Z,1001.68
2019-05-19T05:55:04.901Z,1001.68
2019-05-19T05:56:14.616Z,1001.68
2019-05-19T05:57:24.562Z,1001.66
2019-05-19T05:58:34.314Z,1001.68
2019-05-19T05:59:44.032Z,1001.72
2019-05-19T06:00:54.011Z,1001.73
2019-05-19T06:02:04.004Z,1001.7
2019-05-19T06:03:13.483Z,1001.65
2019-05-19T06:04:23.482Z,1001.71
2019-05-19T06:05:33.455Z,1001.68
2019-05-19T06:06:45.750Z,1001.68
2019-05-19T06:07:55.854Z,1001.71
2019-05-19T06:09:05.557Z,1001.75
2019-05-19T06:10:15.527Z,1001.71
2019-05-19T06:11:25.498Z,1001.73
2019-05-19T06:12:35.223Z,1001.75
2019-05-19T06:13:45.214Z,1001.71
2019-05-19T06:14:57.339Z,1001.74
2019-05-19T06:16:07.044Z,1001.74
2019-05-19T06:17:16.797Z,1001.77
2019-05-19T06:18:26.498Z,1001.73
2019-05-19T06:19:36.226Z,1001.72
2019-05-19T06:20:45.454Z,1001.76
2019-05-19T06:21:55.165Z,1001.75
2019-05-19T06:23:05.098Z,1001.74
2019-05-19T06:24:15.074Z,1001.72
2019-05-19T06:25:25.092Z,1001.73
2019-05-19T06:26:35.418Z,1001.73
2019-05-19T06:27:45.382Z,1001.69
2019-05-19T06:28:55.093Z,1001.68
2019-05-19T06:30:08.422Z,1001.68
2019-05-19T06:31:18.362Z,1001.68
2019-05-19T06:32:28.074Z,1001.68
2019-05-19T06:33:37.787Z,1001.66
2019-05-19T06:34:47.501Z,1001.68
2019-05-19T06:35:57.532Z,1001.66
2019-05-19T06:37:07.257Z,1001.63
2019-05-19T06:38:17.224Z,1001.63
2019-05-19T06:39:27.182Z,1001.61
2019-05-19T06:40:36.641Z,1001.62
2019-05-19T06:41:46.602Z,1001.66
2019-05-19T06:42:56.567Z,1001.64
2019-05-19T06:44:06.536Z,1001.66
2019-05-19T06:45:16.517Z,1001.62
2019-05-19T06:46:26.740Z,1001.58
2019-05-19T06:47:36.712Z,1001.59
2019-05-19T06:48:46.423Z,1001.61
2019-05-19T06:49:55.896Z,1001.61
2019-05-19T06:51:05.864Z,1001.62
2019-05-19T06:52:15.839Z,1001.62
2019-05-19T06:53:25.593Z,1001.61
2019-05-19T06:54:35.303Z,1001.63
2019-05-19T06:55:45.258Z,1001.61
2019-05-19T06:56:54.978Z,1001.61
2019-05-19T06:58:04.695Z,1001.61
2019-05-19T06:59:14.654Z,1001.62
2019-05-19T07:00:24.403Z,1001.59
2019-05-19T07:01:34.138Z,1001.59
2019-05-19T07:02:44.102Z,1001.57
2019-05-19T07:03:53.833Z,1001.56
2019-05-19T07:05:03.060Z,1001.55
2019-05-19T07:06:12.772Z,1001.61
2019-05-19T07:07:22.519Z,1001.57
2019-05-19T07:08:32.485Z,1001.54
2019-05-19T07:09:55.941Z,1001.54
2019-05-19T07:11:07.363Z,1001.58
2019-05-19T07:12:17.329Z,1001.59
2019-05-19T07:13:26.783Z,1001.56
2019-05-19T07:14:36.748Z,1001.54
2019-05-19T07:15:46.462Z,1001.54
2019-05-19T07:16:56.455Z,1001.56
2019-05-19T07:18:05.932Z,1001.57
2019-05-19T07:19:15.637Z,1001.54
2019-05-19T07:20:25.120Z,1001.51
2019-05-19T07:21:34.846Z,1001.51
2019-05-19T07:22:44.834Z,1001.55
2019-05-19T07:23:54.581Z,1001.49
2019-05-19T07:25:04.545Z,1001.5
2019-05-19T07:26:14.263Z,1001.46
2019-05-19T07:27:23.984Z,1001.51
2019-05-19T07:28:33.712Z,1001.54
2019-05-19T07:29:43.901Z,1001.53
2019-05-19T07:30:53.871Z,1001.5
2019-05-19T07:32:03.623Z,1001.49
2019-05-19T07:33:13.628Z,1001.49
2019-05-19T07:34:23.583Z,1001.47
2019-05-19T07:35:33.399Z,1001.46
2019-05-19T07:36:43.378Z,1001.45
2019-05-19T07:37:53.355Z,1001.48
2019-05-19T07:39:03.345Z,1001.45
2019-05-19T07:40:13.305Z,1001.49
2019-05-19T07:41:23.317Z,1001.45
2019-05-19T07:42:33.026Z,1001.46
2019-05-19T07:43:42.740Z,1001.45
2019-05-19T07:44:52.681Z,1001.51
2019-05-19T07:46:02.644Z,1001.5
2019-05-19T07:47:12.602Z,1001.45
2019-05-19T07:48:22.306Z,1001.43
2019-05-19T07:49:32.005Z,1001.42
2019-05-19T07:50:41.453Z,1001.46
2019-05-19T07:51:50.649Z,1001.45
2019-05-19T07:53:00.362Z,1001.39
2019-05-19T07:54:10.389Z,1001.41
2019-05-19T07:55:20.108Z,1001.43
2019-05-19T07:56:30.076Z,1001.44
2019-05-19T07:57:40.104Z,1001.45
2019-05-19T07:58:49.825Z,1001.43
2019-05-19T07:59:59.791Z,1001.41
2019-05-19T08:01:10.035Z,1001.4
2019-05-19T08:02:19.884Z,1001.38
2019-05-19T08:03:29.865Z,1001.4
2019-05-19T08:04:40.088Z,1001.35
2019-05-19T08:05:49.838Z,1001.34
2019-05-19T08:07:02.324Z,1001.37
2019-05-19T08:08:12.313Z,1001.38
2019-05-19T08:09:22.025Z,1001.34
2019-05-19T08:10:31.997Z,1001.32
2019-05-19T08:11:41.750Z,1001.31
2019-05-19T08:12:51.741Z,1001.24
2019-05-19T08:14:01.458Z,1001.28
2019-05-19T08:15:11.400Z,1001.26
2019-05-19T08:16:21.371Z,1001.25
2019-05-19T08:17:31.150Z,1001.23
2019-05-19T08:18:41.113Z,1001.29
2019-05-19T08:19:50.851Z,1001.3
2019-05-19T08:21:00.812Z,1001.27
2019-05-19T08:22:10.523Z,1001.27
2019-05-19T08:23:20.499Z,1001.21
2019-05-19T08:24:29.702Z,1001.28
2019-05-19T08:25:39.413Z,1001.31
2019-05-19T08:26:49.453Z,1001.27
2019-05-19T08:28:07.102Z,1001.22
2019-05-19T08:29:18.608Z,1001.25
2019-05-19T08:30:28.607Z,1001.23
2019-05-19T08:31:38.604Z,1001.27
2019-05-19T08:32:48.353Z,1001.21
2019-05-19T08:33:58.556Z,1001.14
2019-05-19T08:35:08.770Z,1001.14
2019-05-19T08:36:18.737Z,1001.19
2019-05-19T08:37:28.476Z,1001.13
2019-05-19T08:38:38.399Z,1001.16
2019-05-19T08:39:48.362Z,1001.15
2019-05-19T08:40:58.406Z,1001.12
2019-05-19T08:42:08.616Z,1001.14
2019-05-19T08:43:18.596Z,1001.18
2019-05-19T08:44:28.553Z,1001.11
2019-05-19T08:45:38.519Z,1001.13
2019-05-19T08:46:48.489Z,1001.07
2019-05-19T08:47:57.946Z,1001.14
2019-05-19T08:49:07.433Z,1001.13
2019-05-19T08:50:17.407Z,1001.16
2019-05-19T08:51:27.363Z,1001.15
2019-05-19T08:52:37.352Z,1001.16
2019-05-19T08:53:47.334Z,1001.12
2019-05-19T08:54:57.089Z,1001.18
2019-05-19T08:56:06.588Z,1001.18
2019-05-19T08:57:16.571Z,1001.13
2019-05-19T08:58:26.570Z,1001.12
2019-05-19T08:59:36.543Z,1001.16
2019-05-19T09:00:46.503Z,1001.14
2019-05-19T09:01:56.237Z,1001.17
2019-05-19T09:03:06.017Z,1001.14
2019-05-19T09:04:15.770Z,1001.19
2019-05-19T09:05:25.482Z,1001.17
2019-05-19T09:06:34.963Z,1001.19
2019-05-19T09:07:44.916Z,1001.15
2019-05-19T09:08:54.120Z,1001.14
2019-05-19T09:10:03.840Z,1001.13
2019-05-19T09:11:13.828Z,1001.05
2019-05-19T09:12:23.801Z,1001.18
2019-05-19T09:13:33.603Z,1001.1
2019-05-19T09:14:43.625Z,1001.13
2019-05-19T09:15:53.598Z,1001.11
2019-05-19T09:17:03.666Z,1001.13
2019-05-19T09:18:13.507Z,1001.07
2019-05-19T09:19:23.272Z,1001.09
2019-05-19T09:20:33.238Z,1001.05
2019-05-19T09:21:43.215Z,1001.03
2019-05-19T09:22:53.184Z,1001.02
2019-05-19T09:24:02.915Z,1001.04
2019-05-19T09:25:12.368Z,1001.05
2019-05-19T09:26:22.310Z,1001
2019-05-19T09:27:32.338Z,1001.03
2019-05-19T09:28:42.328Z,1001.03
2019-05-19T09:29:52.063Z,1000.98
2019-05-19T09:31:01.566Z,1001
2019-05-19T09:32:11.789Z,1000.96
2019-05-19T09:33:21.523Z,1000.94
2019-05-19T09:34:31.265Z,1000.91
2019-05-19T09:35:41.261Z,1000.86
2019-05-19T09:36:51.232Z,1000.85
2019-05-19T09:38:00.705Z,1000.85
2019-05-19T09:39:10.912Z,1000.85
2019-05-19T09:40:20.884Z,1000.8
2019-05-19T09:41:34.238Z,1000.79
2019-05-19T09:42:44.229Z,1000.8
2019-05-19T09:43:54.507Z,1000.86
2019-05-19T09:45:04.607Z,1000.81
2019-05-19T09:46:14.700Z,1000.77
2019-05-19T09:47:24.399Z,1000.83
2019-05-19T09:48:34.186Z,1000.84
2019-05-19T09:49:44.169Z,1000.88
2019-05-19T09:50:53.874Z,1000.91
2019-05-19T09:52:03.914Z,1000.89
2019-05-19T09:53:17.570Z,1000.78
2019-05-19T09:54:27.534Z,1000.82
2019-05-19T09:55:51.694Z,1000.81
2019-05-19T09:57:01.396Z,1000.83
2019-05-19T09:58:11.365Z,1000.81
2019-05-19T09:59:27.370Z,1000.78
2019-05-19T10:00:37.106Z,1000.71
2019-05-19T10:01:46.592Z,1000.68
2019-05-19T10:02:56.621Z,1000.73
2019-05-19T10:04:07.122Z,1000.74
2019-05-19T10:05:17.159Z,1000.76
2019-05-19T10:06:27.134Z,1000.8
2019-05-19T10:07:36.930Z,1000.72
2019-05-19T10:08:46.667Z,1000.66
2019-05-19T10:09:56.389Z,1000.58
2019-05-19T10:11:06.418Z,1000.72
2019-05-19T10:12:16.373Z,1000.73
2019-05-19T10:13:26.082Z,1000.72
2019-05-19T10:14:38.312Z,1000.7
2019-05-19T10:15:48.330Z,1000.72
2019-05-19T10:16:58.053Z,1000.69
2019-05-19T10:18:07.740Z,1000.68
2019-05-19T10:19:17.699Z,1000.68
2019-05-19T10:20:27.679Z,1000.68
2019-05-19T10:21:37.662Z,1000.71
2019-05-19T10:22:47.652Z,1000.66
2019-05-19T10:23:57.624Z,1000.67
2019-05-19T10:25:20.796Z,1000.6
2019-05-19T10:26:31.469Z,1000.6
2019-05-19T10:27:41.484Z,1000.58
2019-05-19T10:28:51.669Z,1000.62
2019-05-19T10:30:01.633Z,1000.58
2019-05-19T10:31:11.373Z,1000.61
2019-05-19T10:32:21.375Z,1000.57
2019-05-19T10:33:31.088Z,1000.59
2019-05-19T10:34:41.055Z,1000.5
2019-05-19T10:35:50.773Z,1000.51
2019-05-19T10:37:00.743Z,1000.5
2019-05-19T10:38:10.911Z,1000.53
2019-05-19T10:39:23.138Z,1000.51
2019-05-19T10:40:32.881Z,1000.54
2019-05-19T10:41:42.858Z,1000.51
2019-05-19T10:42:52.815Z,1000.54
2019-05-19T10:44:02.535Z,1000.51
2019-05-19T10:45:12.528Z,1000.53
2019-05-19T10:46:22.526Z,1000.48
2019-05-19T10:47:32.571Z,1000.48
2019-05-19T10:48:42.542Z,1000.48
2019-05-19T10:49:52.509Z,1000.46
2019-05-19T10:51:02.232Z,1000.47
2019-05-19T10:52:11.940Z,1000.47
2019-05-19T10:53:21.746Z,1000.42
2019-05-19T10:54:31.723Z,1000.44
2019-05-19T10:55:41.832Z,1000.44
2019-05-19T10:56:51.284Z,1000.42
2019-05-19T10:58:01.002Z,1000.41
2019-05-19T10:59:10.762Z,1000.42
2019-05-19T11:00:20.246Z,1000.37
2019-05-19T11:01:29.966Z,1000.4
2019-05-19T11:02:39.680Z,1000.41
2019-05-19T11:03:49.404Z,1000.43
2019-05-19T11:04:59.474Z,1000.42
2019-05-19T11:06:11.618Z,1000.42
2019-05-19T11:07:21.617Z,1000.43
2019-05-19T11:08:31.592Z,1000.45
2019-05-19T11:09:41.472Z,1000.45
2019-05-19T11:10:51.453Z,1000.32
2019-05-19T11:12:01.198Z,1000.43
2019-05-19T11:13:10.950Z,1000.38
2019-05-19T11:14:20.677Z,1000.45
2019-05-19T11:15:30.629Z,1000.37
2019-05-19T11:16:40.104Z,1000.34
2019-05-19T11:17:50.074Z,1000.34
2019-05-19T11:19:00.035Z,1000.27
2019-05-19T11:20:09.749Z,1000.27
2019-05-19T11:21:19.842Z,1000.34
2019-05-19T11:22:29.803Z,1000.26
2019-05-19T11:23:39.516Z,1000.31
2019-05-19T11:24:49.469Z,1000.24
2019-05-19T11:25:59.204Z,1000.24
2019-05-19T11:27:10.096Z,1000.23
2019-05-19T11:28:19.635Z,1000.21
2019-05-19T11:29:29.104Z,1000.17
2019-05-19T11:30:39.065Z,1000.24
2019-05-19T11:31:49.251Z,1000.25
2019-05-19T11:32:58.977Z,1000.26
2019-05-19T11:34:08.990Z,1000.15
2019-05-19T11:35:18.970Z,1000.17
2019-05-19T11:36:28.704Z,1000.12
2019-05-19T11:37:38.439Z,1000.15
2019-05-19T11:38:48.414Z,1000.1
2019-05-19T11:39:57.895Z,1000.13
2019-05-19T11:41:07.880Z,1000.09
2019-05-19T11:42:17.858Z,1000.16
2019-05-19T11:43:27.896Z,1000.11
2019-05-19T11:44:37.879Z,1000.09
2019-05-19T11:45:47.855Z,1000.03
2019-05-19T11:46:57.577Z,1000.09
2019-05-19T11:48:07.578Z,1000.04
2019-05-19T11:49:17.571Z,1000.12
2019-05-19T11:50:27.580Z,1000.12
2019-05-19T11:51:37.325Z,1000.07
2019-05-19T11:52:46.865Z,1000.03
2019-05-19T11:53:56.831Z,999.99
2019-05-19T11:55:06.791Z,999.97
2019-05-19T11:56:16.769Z,999.97
2019-05-19T11:57:26.730Z,999.99
2019-05-19T11:58:36.464Z,999.99
2019-05-19T11:59:46.191Z,999.97
2019-05-19T12:00:56.211Z,1000.01
2019-05-19T12:02:06.197Z,1000.01
2019-05-19T12:03:16.159Z,999.96
2019-05-19T12:04:26.122Z,999.94
2019-05-19T12:05:36.337Z,999.9
2019-05-19T12:06:46.324Z,999.79
2019-05-19T12:07:56.296Z,999.88
2019-05-19T12:09:06.019Z,999.88
2019-05-19T12:10:15.755Z,999.89
2019-05-19T12:11:25.752Z,999.97
2019-05-19T12:12:35.484Z,999.89
2019-05-19T12:13:45.250Z,999.9
2019-05-19T12:14:55.217Z,999.86
2019-05-19T12:16:05.191Z,999.91
2019-05-19T12:17:14.676Z,999.91
2019-05-19T12:18:24.587Z,999.95
2019-05-19T12:19:34.570Z,999.93
2019-05-19T12:20:44.546Z,999.87
2019-05-19T12:21:54.557Z,999.9
2019-05-19T12:23:04.542Z,999.91
2019-05-19T12:24:14.528Z,999.93
2019-05-19T12:25:24.267Z,999.86
2019-05-19T12:26:34.960Z,999.88
2019-05-19T12:27:44.812Z,999.89
2019-05-19T12:28:54.536Z,999.89
2019-05-19T12:30:04.516Z,999.92
2019-05-19T12:31:14.494Z,999.91
2019-05-19T12:32:24.516Z,999.89
2019-05-19T12:33:34.040Z,999.88
2019-05-19T12:34:58.741Z,999.89
2019-05-19T12:36:08.747Z,999.87
2019-05-19T12:37:18.741Z,999.88
2019-05-19T12:38:28.712Z,999.9
2019-05-19T12:39:38.682Z,999.92
2019-05-19T12:40:48.425Z,999.91
2019-05-19T12:41:58.153Z,999.88
2019-05-19T12:43:08.132Z,999.92
2019-05-19T12:44:17.903Z,999.87
2019-05-19T12:45:27.920Z,999.89
2019-05-19T12:46:38.002Z,999.92
2019-05-19T12:47:47.480Z,999.77
2019-05-19T12:48:57.471Z,999.83
2019-05-19T12:50:07.591Z,999.74
2019-05-19T12:51:17.822Z,999.71
2019-05-19T12:52:29.866Z,999.73
2019-05-19T12:53:39.885Z,999.78
2019-05-19T12:54:49.669Z,999.78
2019-05-19T12:55:59.798Z,999.75
2019-05-19T12:57:09.508Z,999.8
2019-05-19T12:58:21.771Z,999.72
2019-05-19T12:59:31.501Z,999.7
2019-05-19T13:00:41.495Z,999.65
2019-05-19T13:01:51.484Z,999.71
2019-05-19T13:03:01.281Z,999.71
2019-05-19T13:04:11.360Z,999.69
2019-05-19T13:05:21.219Z,999.68
2019-05-19T13:06:31.208Z,999.65
2019-05-19T13:07:41.195Z,999.62
2019-05-19T13:08:51.198Z,999.58
2019-05-19T13:10:00.985Z,999.6
2019-05-19T13:11:10.744Z,999.6
2019-05-19T13:12:20.228Z,999.57
2019-05-19T13:13:29.999Z,999.55
2019-05-19T13:14:40.018Z,999.59
2019-05-19T13:15:49.499Z,999.54
2019-05-19T13:16:59.471Z,999.6
2019-05-19T13:18:09.465Z,999.55
2019-05-19T13:19:19.472Z,999.55
2019-05-19T13:20:29.559Z,999.57
2019-05-19T13:21:39.541Z,999.57
2019-05-19T13:22:49.516Z,999.56
2019-05-19T13:23:59.529Z,999.54
2019-05-19T13:25:09.539Z,999.56
2019-05-19T13:26:19.283Z,999.54
2019-05-19T13:27:28.839Z,999.54
2019-05-19T13:28:38.550Z,999.55
2019-05-19T13:29:48.329Z,999.54
2019-05-19T13:30:58.063Z,999.51
2019-05-19T13:32:08.044Z,999.5
2019-05-19T13:33:18.023Z,999.51
2019-05-19T13:34:28.025Z,999.5
2019-05-19T13:35:37.772Z,999.47
2019-05-19T13:36:47.757Z,999.42
2019-05-19T13:37:57.744Z,999.48
2019-05-19T13:39:07.471Z,999.51
2019-05-19T13:40:17.453Z,999.54
2019-05-19T13:41:27.210Z,999.5
2019-05-19T13:42:37.178Z,999.48
2019-05-19T13:43:47.242Z,999.43
2019-05-19T13:44:59.941Z,999.47
2019-05-19T13:46:09.660Z,999.43
2019-05-19T13:47:19.637Z,999.47
2019-05-19T13:48:29.388Z,999.45
2019-05-19T13:49:39.156Z,999.49
2019-05-19T13:50:49.195Z,999.48
2019-05-19T13:51:58.926Z,999.53
2019-05-19T13:53:08.958Z,999.5
2019-05-19T13:54:18.924Z,999.48
2019-05-19T13:55:28.400Z,999.47
2019-05-19T13:56:38.387Z,999.48
2019-05-19T13:57:48.134Z,999.41
2019-05-19T13:58:57.862Z,999.44
2019-05-19T14:00:07.864Z,999.43
2019-05-19T14:01:27.894Z,999.46
2019-05-19T14:02:38.318Z,999.44
2019-05-19T14:03:48.043Z,999.4
2019-05-19T14:04:59.901Z,999.39
2019-05-19T14:06:09.904Z,999.38
2019-05-19T14:07:19.881Z,999.4
2019-05-19T14:08:29.861Z,999.33
2019-05-19T14:09:39.904Z,999.34
2019-05-19T14:10:49.914Z,999.36
2019-05-19T14:11:59.911Z,999.35
2019-05-19T14:13:09.882Z,999.36
2019-05-19T14:14:19.855Z,999.38